sensor_id;sensor_type;location;lat;lon;timestamp;pressure;altitude;pressure_sealevel;temperature;humidity
84387;BME280;74580;47.078;15.446;2024-03-06T00:01:44;97362.56;;;22.97;35.03
84387;BME280;74580;47.078;15.446;2024-03-06T00:04:09;97370.72;;;22.97;34.85
84387;BME280;74580;47.078;15.446;2024-03-06T00:06:34;97365.69;;;22.99;34.81
84387;BME280;74580;47.078;15.446;2024-03-06T00:09:00;97366.06;;;22.98;34.75
84387;BME280;74580;47.078;15.446;2024-03-06T00:11:27;97368.00;;;22.97;34.85
84387;BME280;74580;47.078;15.446;2024-03-06T00:13:53;97372.28;;;22.98;34.88
84387;BME280;74580;47.078;15.446;2024-03-06T00:16:19;97375.38;;;22.97;34.95
84387;BME280;74580;47.078;15.446;2024-03-06T00:18:45;97375.38;;;22.97;34.81
84387;BME280;74580;47.078;15.446;2024-03-06T00:21:10;97385.13;;;22.98;35.16
84387;BME280;74580;47.078;15.446;2024-03-06T00:23:37;97375.38;;;22.97;34.89
84387;BME280;74580;47.078;15.446;2024-03-06T00:26:03;97383.56;;;22.97;34.76
84387;BME280;74580;47.078;15.446;2024-03-06T00:28:28;97380.06;;;22.96;34.66
84387;BME280;74580;47.078;15.446;2024-03-06T00:30:54;97382.00;;;22.96;34.63
84387;BME280;74580;47.078;15.446;2024-03-06T00:33:19;97386.72;;;22.99;34.68
84387;BME280;74580;47.078;15.446;2024-03-06T00:35:45;97380.06;;;22.96;34.96
84387;BME280;74580;47.078;15.446;2024-03-06T00:38:10;97386.66;;;22.95;35.03
84387;BME280;74580;47.078;15.446;2024-03-06T00:40:36;97386.28;;;22.97;34.50
84387;BME280;74580;47.078;15.446;2024-03-06T00:43:01;97379.66;;;22.98;34.85
84387;BME280;74580;47.078;15.446;2024-03-06T00:45:27;97386.28;;;22.97;34.74
84387;BME280;74580;47.078;15.446;2024-03-06T00:47:52;97380.06;;;22.96;34.73
84387;BME280;74580;47.078;15.446;2024-03-06T00:50:18;97380.84;;;22.97;34.86
84387;BME280;74580;47.078;15.446;2024-03-06T00:52:46;97377.72;;;22.95;34.75
84387;BME280;74580;47.078;15.446;2024-03-06T00:55:11;97376.19;;;22.97;34.76
84387;BME280;74580;47.078;15.446;2024-03-06T00:57:37;97379.28;;;22.96;34.74
84387;BME280;74580;47.078;15.446;2024-03-06T01:00:03;97378.47;;;22.95;34.65
84387;BME280;74580;47.078;15.446;2024-03-06T01:02:36;97374.97;;;22.95;35.01
84387;BME280;74580;47.078;15.446;2024-03-06T01:05:01;97380.84;;;22.97;35.03
84387;BME280;74580;47.078;15.446;2024-03-06T01:07:29;97385.53;;;22.96;34.88
84387;BME280;74580;47.078;15.446;2024-03-06T01:09:54;97383.16;;;22.95;34.85
84387;BME280;74580;47.078;15.446;2024-03-06T01:12:19;97376.91;;;22.94;34.73
84387;BME280;74580;47.078;15.446;2024-03-06T01:14:45;97381.19;;;22.95;34.67
84387;BME280;74580;47.078;15.446;2024-03-06T01:17:10;97379.28;;;22.96;34.74
84387;BME280;74580;47.078;15.446;2024-03-06T01:19:35;97378.47;;;22.95;34.67
84387;BME280;74580;47.078;15.446;2024-03-06T01:22:01;97380.44;;;22.95;34.56
84387;BME280;74580;47.078;15.446;2024-03-06T01:24:26;97369.91;;;22.93;34.56
84387;BME280;74580;47.078;15.446;2024-03-06T01:26:51;97381.56;;;22.94;34.63
84387;BME280;74580;47.078;15.446;2024-03-06T01:29:17;97381.56;;;22.94;34.66
84387;BME280;74580;47.078;15.446;2024-03-06T01:31:43;97376.13;;;22.94;34.77
84387;BME280;74580;47.078;15.446;2024-03-06T01:34:11;97373.81;;;22.96;34.44
84387;BME280;74580;47.078;15.446;2024-03-06T01:36:37;97379.63;;;22.94;34.75
84387;BME280;74580;47.078;15.446;2024-03-06T01:39:02;97377.72;;;22.95;34.81
84387;BME280;74580;47.078;15.446;2024-03-06T01:41:28;97376.91;;;22.94;34.71
84387;BME280;74580;47.078;15.446;2024-03-06T01:43:53;97372.25;;;22.95;35.09
84387;BME280;74580;47.078;15.446;2024-03-06T01:46:18;97376.13;;;22.94;34.73
84387;BME280;74580;47.078;15.446;2024-03-06T01:48:44;97371.47;;;22.94;34.76
84387;BME280;74580;47.078;15.446;2024-03-06T01:51:10;97371.47;;;22.94;34.72
84387;BME280;74580;47.078;15.446;2024-03-06T01:53:35;97376.13;;;22.94;34.76
84387;BME280;74580;47.078;15.446;2024-03-06T01:56:02;97372.25;;;22.95;34.65
84387;BME280;74580;47.078;15.446;2024-03-06T01:58:29;97370.31;;;22.95;34.10
84387;BME280;74580;47.078;15.446;2024-03-06T02:00:56;97367.56;;;22.95;34.76
84387;BME280;74580;47.078;15.446;2024-03-06T02:03:22;97364.44;;;22.93;34.89
84387;BME280;74580;47.078;15.446;2024-03-06T02:05:51;97364.84;;;22.95;34.69
84387;BME280;74580;47.078;15.446;2024-03-06T02:08:18;97363.66;;;22.93;34.98
84387;BME280;74580;47.078;15.446;2024-03-06T02:10:46;97360.56;;;22.94;34.73
84387;BME280;74580;47.078;15.446;2024-03-06T02:13:12;97360.94;;;22.93;34.58
84387;BME280;74580;47.078;15.446;2024-03-06T02:15:38;97359.00;;;22.93;34.55
84387;BME280;74580;47.078;15.446;2024-03-06T02:18:05;97352.75;;;22.93;34.50
84387;BME280;74580;47.078;15.446;2024-03-06T02:20:31;97357.03;;;22.94;34.83
84387;BME280;74580;47.078;15.446;2024-03-06T02:22:56;97359.00;;;22.93;34.81
84387;BME280;74580;47.078;15.446;2024-03-06T02:25:22;97351.19;;;22.92;34.76
84387;BME280;74580;47.078;15.446;2024-03-06T02:27:47;97351.19;;;22.92;34.73
84387;BME280;74580;47.078;15.446;2024-03-06T02:30:19;97348.09;;;22.93;34.68
84387;BME280;74580;47.078;15.446;2024-03-06T02:32:46;97347.31;;;22.93;34.76
84387;BME280;74580;47.078;15.446;2024-03-06T02:35:11;97344.94;;;22.91;34.50
84387;BME280;74580;47.078;15.446;2024-03-06T02:37:37;97346.91;;;22.91;34.91
84387;BME280;74580;47.078;15.446;2024-03-06T02:40:04;97346.91;;;22.91;34.71
84387;BME280;74580;47.078;15.446;2024-03-06T02:42:32;97341.47;;;22.91;34.55
84387;BME280;74580;47.078;15.446;2024-03-06T02:44:58;97343.38;;;22.90;34.73
84387;BME280;74580;47.078;15.446;2024-03-06T02:47:23;97340.66;;;22.90;34.66
84387;BME280;74580;47.078;15.446;2024-03-06T02:49:49;97338.72;;;22.91;34.79
84387;BME280;74580;47.078;15.446;2024-03-06T02:52:14;97339.84;;;22.90;34.84
84387;BME280;74580;47.078;15.446;2024-03-06T02:54:43;97343.38;;;22.90;34.63
84387;BME280;74580;47.078;15.446;2024-03-06T02:57:08;97339.50;;;22.91;34.85
84387;BME280;74580;47.078;15.446;2024-03-06T02:59:33;97337.56;;;22.92;34.64
84387;BME280;74580;47.078;15.446;2024-03-06T03:01:59;97336.78;;;22.91;34.62
84387;BME280;74580;47.078;15.446;2024-03-06T03:04:25;97341.47;;;22.91;34.75
84387;BME280;74580;47.078;15.446;2024-03-06T03:06:51;97340.66;;;22.90;34.57
84387;BME280;74580;47.078;15.446;2024-03-06T03:09:17;97346.91;;;22.91;34.64
84387;BME280;74580;47.078;15.446;2024-03-06T03:11:43;97349.63;;;22.91;34.68
84387;BME280;74580;47.078;15.446;2024-03-06T03:14:09;97342.59;;;22.90;34.66
84387;BME280;74580;47.078;15.446;2024-03-06T03:16:34;97344.09;;;22.87;34.90
84387;BME280;74580;47.078;15.446;2024-03-06T03:19:01;97348.03;;;22.90;34.58
84387;BME280;74580;47.078;15.446;2024-03-06T03:21:26;97342.59;;;22.90;34.67
84387;BME280;74580;47.078;15.446;2024-03-06T03:23:52;97341.81;;;22.89;34.43
84387;BME280;74580;47.078;15.446;2024-03-06T03:26:17;97350.75;;;22.90;34.63
84387;BME280;74580;47.078;15.446;2024-03-06T03:28:43;97348.03;;;22.90;34.52
84387;BME280;74580;47.078;15.446;2024-03-06T03:31:08;97343.75;;;22.89;34.61
84387;BME280;74580;47.078;15.446;2024-03-06T03:33:35;97349.19;;;22.89;34.67
84387;BME280;74580;47.078;15.446;2024-03-06T03:36:04;97348.44;;;22.88;34.60
84387;BME280;74580;47.078;15.446;2024-03-06T03:38:29;97348.84;;;22.90;34.62
84387;BME280;74580;47.078;15.446;2024-03-06T03:40:55;97348.44;;;22.88;34.76
84387;BME280;74580;47.078;15.446;2024-03-06T03:43:20;97358.16;;;22.89;34.73
84387;BME280;74580;47.078;15.446;2024-03-06T03:45:46;97357.38;;;22.89;34.57
84387;BME280;74580;47.078;15.446;2024-03-06T03:48:11;97355.44;;;22.89;34.49
84387;BME280;74580;47.078;15.446;2024-03-06T03:50:37;97354.28;;;22.90;34.75
84387;BME280;74580;47.078;15.446;2024-03-06T03:53:03;97351.16;;;22.88;34.51
84387;BME280;74580;47.078;15.446;2024-03-06T03:55:29;97356.22;;;22.90;34.65
84387;BME280;74580;47.078;15.446;2024-03-06T03:57:54;97354.28;;;22.90;34.62
84387;BME280;74580;47.078;15.446;2024-03-06T04:00:20;97350.75;;;22.90;34.66
84387;BME280;74580;47.078;15.446;2024-03-06T04:02:45;97357.38;;;22.89;34.46
84387;BME280;74580;47.078;15.446;2024-03-06T04:05:11;97357.72;;;22.87;34.41
84387;BME280;74580;47.078;15.446;2024-03-06T04:07:36;97347.63;;;22.88;34.56
84387;BME280;74580;47.078;15.446;2024-03-06T04:10:03;97345.72;;;22.88;34.75
84387;BME280;74580;47.078;15.446;2024-03-06T04:12:28;97351.16;;;22.88;34.57
84387;BME280;74580;47.078;15.446;2024-03-06T04:14:54;97351.50;;;22.87;34.84
84387;BME280;74580;47.078;15.446;2024-03-06T04:17:19;97355.00;;;22.87;34.69
84387;BME280;74580;47.078;15.446;2024-03-06T04:19:45;97353.06;;;22.88;34.71
84387;BME280;74580;47.078;15.446;2024-03-06T04:22:10;97358.53;;;22.88;34.75
84387;BME280;74580;47.078;15.446;2024-03-06T04:24:36;97353.88;;;22.88;34.43
84387;BME280;74580;47.078;15.446;2024-03-06T04:27:01;97360.09;;;22.89;34.65
84387;BME280;74580;47.078;15.446;2024-03-06T04:29:26;97358.53;;;22.88;34.75
84387;BME280;74580;47.078;15.446;2024-03-06T04:31:52;97356.97;;;22.87;34.62
84387;BME280;74580;47.078;15.446;2024-03-06T04:34:17;97358.16;;;22.89;34.73
84387;BME280;74580;47.078;15.446;2024-03-06T04:36:42;97363.97;;;22.88;34.58
84387;BME280;74580;47.078;15.446;2024-03-06T04:39:08;97365.91;;;22.87;34.64
84387;BME280;74580;47.078;15.446;2024-03-06T04:41:33;97367.50;;;22.88;34.35
84387;BME280;74580;47.078;15.446;2024-03-06T04:43:59;97364.34;;;22.86;34.41
84387;BME280;74580;47.078;15.446;2024-03-06T04:46:26;97363.53;;;22.86;34.81
84387;BME280;74580;47.078;15.446;2024-03-06T04:48:51;97369.78;;;22.86;34.59
84387;BME280;74580;47.078;15.446;2024-03-06T04:51:17;97374.44;;;22.86;34.57
84387;BME280;74580;47.078;15.446;2024-03-06T04:53:45;97369.00;;;22.86;34.57
84387;BME280;74580;47.078;15.446;2024-03-06T04:56:10;97377.16;;;22.86;34.67
84387;BME280;74580;47.078;15.446;2024-03-06T04:58:36;97377.16;;;22.86;34.67
84387;BME280;74580;47.078;15.446;2024-03-06T05:01:01;97379.13;;;22.85;34.25
84387;BME280;74580;47.078;15.446;2024-03-06T05:03:26;97386.50;;;22.85;34.59
84387;BME280;74580;47.078;15.446;2024-03-06T05:05:52;97386.94;;;22.87;34.49
84387;BME280;74580;47.078;15.446;2024-03-06T05:08:17;97394.31;;;22.86;34.84
84387;BME280;74580;47.078;15.446;2024-03-06T05:10:42;97398.97;;;22.86;34.61
84387;BME280;74580;47.078;15.446;2024-03-06T05:13:08;97402.06;;;22.84;34.70
84387;BME280;74580;47.078;15.446;2024-03-06T05:15:33;97398.56;;;22.84;34.73
84387;BME280;74580;47.078;15.446;2024-03-06T05:17:59;97392.75;;;22.85;34.46
84387;BME280;74580;47.078;15.446;2024-03-06T05:20:25;97394.66;;;22.85;34.63
84387;BME280;74580;47.078;15.446;2024-03-06T05:22:51;97390.78;;;22.86;34.49
84387;BME280;74580;47.078;15.446;2024-03-06T05:25:16;97390.38;;;22.84;34.93
84387;BME280;74580;47.078;15.446;2024-03-06T05:27:41;97399.72;;;22.83;34.38
84387;BME280;74580;47.078;15.446;2024-03-06T05:30:07;97401.63;;;22.82;34.65
84387;BME280;74580;47.078;15.446;2024-03-06T05:32:33;97390.75;;;22.82;34.70
84387;BME280;74580;47.078;15.446;2024-03-06T05:34:59;97400.06;;;22.81;34.62
84387;BME280;74580;47.078;15.446;2024-03-06T05:37:24;97398.56;;;22.84;34.43
84387;BME280;74580;47.078;15.446;2024-03-06T05:39:50;97402.44;;;22.83;34.63
84387;BME280;74580;47.078;15.446;2024-03-06T05:42:15;97402.00;;;22.81;34.62
84387;BME280;74580;47.078;15.446;2024-03-06T05:44:41;97400.47;;;22.83;34.61
84387;BME280;74580;47.078;15.446;2024-03-06T05:47:07;97397.75;;;22.83;34.61
84387;BME280;74580;47.078;15.446;2024-03-06T05:49:32;97398.56;;;22.84;34.07
84387;BME280;74580;47.078;15.446;2024-03-06T05:51:58;97403.28;;;22.87;34.73
84387;BME280;74580;47.078;15.446;2024-03-06T05:54:23;97392.38;;;22.87;34.56
84387;BME280;74580;47.078;15.446;2024-03-06T05:56:50;97402.47;;;22.86;34.14
84387;BME280;74580;47.078;15.446;2024-03-06T05:59:19;97404.00;;;22.84;33.76
84387;BME280;74580;47.078;15.446;2024-03-06T06:01:45;97402.34;;;22.79;33.46
84387;BME280;74580;47.078;15.446;2024-03-06T06:04:11;97402.78;;;22.81;33.71
84387;BME280;74580;47.078;15.446;2024-03-06T06:06:36;97402.34;;;22.79;33.35
84387;BME280;74580;47.078;15.446;2024-03-06T06:09:02;97410.97;;;22.81;33.49
84387;BME280;74580;47.078;15.446;2024-03-06T06:11:31;97404.31;;;22.79;32.86
84387;BME280;74580;47.078;15.446;2024-03-06T06:13:57;97415.22;;;22.79;32.76
84387;BME280;74580;47.078;15.446;2024-03-06T06:16:22;97415.94;;;22.76;32.68
84387;BME280;74580;47.078;15.446;2024-03-06T06:18:48;97408.91;;;22.75;32.55
84387;BME280;74580;47.078;15.446;2024-03-06T06:21:13;97421.38;;;22.76;32.50
84387;BME280;74580;47.078;15.446;2024-03-06T06:23:39;97421.75;;;22.74;32.58
84387;BME280;74580;47.078;15.446;2024-03-06T06:26:04;97420.19;;;22.73;32.39
84387;BME280;74580;47.078;15.446;2024-03-06T06:28:30;97424.06;;;22.72;32.11
84387;BME280;74580;47.078;15.446;2024-03-06T06:30:55;97418.84;;;22.64;31.86
84387;BME280;74580;47.078;15.446;2024-03-06T06:33:21;97429.03;;;22.03;32.35
84387;BME280;74580;47.078;15.446;2024-03-06T06:35:47;97422.72;;;21.99;32.10
84387;BME280;74580;47.078;15.446;2024-03-06T06:38:12;97420.56;;;22.30;32.24
84387;BME280;74580;47.078;15.446;2024-03-06T06:40:37;97426.84;;;22.53;32.81
84387;BME280;74580;47.078;15.446;2024-03-06T06:43:03;97424.25;;;22.60;32.79
84387;BME280;74580;47.078;15.446;2024-03-06T06:45:28;97434.84;;;22.65;32.66
84387;BME280;74580;47.078;15.446;2024-03-06T06:47:54;97432.94;;;22.69;32.76
84387;BME280;74580;47.078;15.446;2024-03-06T06:50:19;97428.72;;;22.72;32.72
84387;BME280;74580;47.078;15.446;2024-03-06T06:52:48;97429.13;;;22.74;33.11
84387;BME280;74580;47.078;15.446;2024-03-06T06:55:13;97431.19;;;22.80;33.01
84387;BME280;74580;47.078;15.446;2024-03-06T06:57:39;97427.31;;;22.81;32.83
84387;BME280;74580;47.078;15.446;2024-03-06T07:00:07;97430.81;;;22.82;32.97
84387;BME280;74580;47.078;15.446;2024-03-06T07:02:41;97432.81;;;22.85;33.04
84387;BME280;74580;47.078;15.446;2024-03-06T07:05:07;97429.72;;;22.86;33.22
84387;BME280;74580;47.078;15.446;2024-03-06T07:07:33;97426.63;;;22.88;32.87
84387;BME280;74580;47.078;15.446;2024-03-06T07:09:59;97434.81;;;22.88;33.27
84387;BME280;74580;47.078;15.446;2024-03-06T07:12:24;97431.34;;;22.91;33.39
84387;BME280;74580;47.078;15.446;2024-03-06T07:14:50;97441.09;;;22.92;33.39
84387;BME280;74580;47.078;15.446;2024-03-06T07:17:15;97436.44;;;22.92;33.37
84387;BME280;74580;47.078;15.446;2024-03-06T07:19:40;97441.91;;;22.92;33.47
84387;BME280;74580;47.078;15.446;2024-03-06T07:22:06;97445.03;;;22.94;33.48
84387;BME280;74580;47.078;15.446;2024-03-06T07:24:31;97445.81;;;22.95;33.68
84387;BME280;74580;47.078;15.446;2024-03-06T07:26:57;97448.53;;;22.95;33.60
84387;BME280;74580;47.078;15.446;2024-03-06T07:29:22;97448.53;;;22.95;33.71
84387;BME280;74580;47.078;15.446;2024-03-06T07:31:48;97457.13;;;22.97;33.85
84387;BME280;74580;47.078;15.446;2024-03-06T07:34:13;97452.84;;;22.96;33.64
84387;BME280;74580;47.078;15.446;2024-03-06T07:36:40;97453.19;;;22.94;33.64
84387;BME280;74580;47.078;15.446;2024-03-06T07:39:05;97457.06;;;22.93;33.67
84387;BME280;74580;47.078;15.446;2024-03-06T07:41:30;97449.25;;;22.92;33.81
84387;BME280;74580;47.078;15.446;2024-03-06T07:43:59;97450.84;;;22.93;33.80
84387;BME280;74580;47.078;15.446;2024-03-06T07:46:27;97450.06;;;22.92;33.65
84387;BME280;74580;47.078;15.446;2024-03-06T07:48:53;97445.75;;;22.91;33.74
84387;BME280;74580;47.078;15.446;2024-03-06T07:51:18;97449.25;;;22.92;33.87
84387;BME280;74580;47.078;15.446;2024-03-06T07:53:44;97447.34;;;22.92;33.85
84387;BME280;74580;47.078;15.446;2024-03-06T07:56:10;97456.63;;;22.91;33.62
84387;BME280;74580;47.078;15.446;2024-03-06T07:58:38;97455.88;;;22.91;33.81
84387;BME280;74580;47.078;15.446;2024-03-06T08:01:04;97460.16;;;22.92;33.85
84387;BME280;74580;47.078;15.446;2024-03-06T08:03:29;97458.59;;;22.91;34.02
84387;BME280;74580;47.078;15.446;2024-03-06T08:05:55;97461.31;;;22.91;34.10
84387;BME280;74580;47.078;15.446;2024-03-06T08:08:20;97457.44;;;22.92;33.92
84387;BME280;74580;47.078;15.446;2024-03-06T08:10:46;97457.84;;;22.94;33.75
84387;BME280;74580;47.078;15.446;2024-03-06T08:13:11;97457.84;;;22.94;33.91
84387;BME280;74580;47.078;15.446;2024-03-06T08:15:37;97460.97;;;22.92;34.01
84387;BME280;74580;47.078;15.446;2024-03-06T08:18:03;97457.06;;;22.93;33.87
84387;BME280;74580;47.078;15.446;2024-03-06T08:20:29;97471.84;;;22.92;33.83
84387;BME280;74580;47.078;15.446;2024-03-06T08:22:56;97467.97;;;22.93;33.77
84387;BME280;74580;47.078;15.446;2024-03-06T08:25:21;97468.34;;;22.92;33.94
84387;BME280;74580;47.078;15.446;2024-03-06T08:27:47;97475.34;;;22.93;34.04
84387;BME280;74580;47.078;15.446;2024-03-06T08:30:12;97472.63;;;22.93;33.96
84387;BME280;74580;47.078;15.446;2024-03-06T08:32:38;97480.03;;;22.92;33.94
84387;BME280;74580;47.078;15.446;2024-03-06T08:35:13;97473.44;;;22.93;33.94
84387;BME280;74580;47.078;15.446;2024-03-06T08:37:39;97478.06;;;22.93;34.00
84387;BME280;74580;47.078;15.446;2024-03-06T08:40:06;97477.72;;;22.94;33.93
84387;BME280;74580;47.078;15.446;2024-03-06T08:42:33;97478.50;;;22.95;33.96
84387;BME280;74580;47.078;15.446;2024-03-06T08:44:58;97481.59;;;22.93;33.97
84387;BME280;74580;47.078;15.446;2024-03-06T08:47:24;97483.53;;;22.93;33.98
84387;BME280;74580;47.078;15.446;2024-03-06T08:49:50;97481.97;;;22.92;33.92
84387;BME280;74580;47.078;15.446;2024-03-06T08:52:15;97488.19;;;22.92;33.93
84387;BME280;74580;47.078;15.446;2024-03-06T08:54:41;97488.19;;;22.92;34.00
84387;BME280;74580;47.078;15.446;2024-03-06T08:57:10;97481.97;;;22.92;34.11
84387;BME280;74580;47.078;15.446;2024-03-06T08:59:35;97484.72;;;22.95;33.80
84387;BME280;74580;47.078;15.446;2024-03-06T09:02:18;97490.53;;;22.94;33.76
84387;BME280;74580;47.078;15.446;2024-03-06T09:04:45;97484.72;;;22.95;33.99
84387;BME280;74580;47.078;15.446;2024-03-06T09:07:11;97489.41;;;22.95;33.96
84387;BME280;74580;47.078;15.446;2024-03-06T09:09:37;97497.59;;;22.95;33.85
84387;BME280;74580;47.078;15.446;2024-03-06T09:12:04;97489.06;;;22.96;33.77
84387;BME280;74580;47.078;15.446;2024-03-06T09:14:33;97490.19;;;22.95;33.92
84387;BME280;74580;47.078;15.446;2024-03-06T09:16:59;97492.91;;;22.95;33.98
84387;BME280;74580;47.078;15.446;2024-03-06T09:19:25;97492.13;;;22.95;34.04
84387;BME280;74580;47.078;15.446;2024-03-06T09:21:50;97497.59;;;22.95;34.14
84387;BME280;74580;47.078;15.446;2024-03-06T09:24:16;97492.91;;;22.95;33.92
84387;BME280;74580;47.078;15.446;2024-03-06T09:26:41;97501.50;;;22.97;34.36
84387;BME280;74580;47.078;15.446;2024-03-06T09:29:06;97494.09;;;22.98;34.16
84387;BME280;74580;47.078;15.446;2024-03-06T09:31:32;97496.06;;;22.97;34.18
84387;BME280;74580;47.078;15.446;2024-03-06T09:33:57;97494.53;;;23.00;34.48
84387;BME280;74580;47.078;15.446;2024-03-06T09:36:23;97496.91;;;23.01;34.01
84387;BME280;74580;47.078;15.446;2024-03-06T09:38:49;97494.94;;;23.02;34.40
84387;BME280;74580;47.078;15.446;2024-03-06T09:41:14;97494.94;;;23.02;34.30
84387;BME280;74580;47.078;15.446;2024-03-06T09:43:39;97490.72;;;23.04;34.17
84387;BME280;74580;47.078;15.446;2024-03-06T09:46:06;97491.50;;;23.05;34.01
84387;BME280;74580;47.078;15.446;2024-03-06T09:48:33;97496.59;;;23.06;34.43
84387;BME280;74580;47.078;15.446;2024-03-06T09:51:01;97484.53;;;23.07;34.24
84387;BME280;74580;47.078;15.446;2024-03-06T09:53:27;97491.53;;;23.08;34.25
84387;BME280;74580;47.078;15.446;2024-03-06T09:55:53;97490.34;;;23.06;34.44
84387;BME280;74580;47.078;15.446;2024-03-06T09:58:19;97487.31;;;23.11;34.25
84387;BME280;74580;47.078;15.446;2024-03-06T10:00:46;97491.53;;;23.08;34.17
84387;BME280;74580;47.078;15.446;2024-03-06T10:03:13;97495.06;;;23.09;34.32
84387;BME280;74580;47.078;15.446;2024-03-06T10:05:38;97492.34;;;23.09;34.27
84387;BME280;74580;47.078;15.446;2024-03-06T10:08:04;97495.88;;;23.09;34.38
84387;BME280;74580;47.078;15.446;2024-03-06T10:10:30;97488.47;;;23.10;34.17
84387;BME280;74580;47.078;15.446;2024-03-06T10:12:56;97493.16;;;23.09;34.38
84387;BME280;74580;47.078;15.446;2024-03-06T10:15:22;97489.25;;;23.10;34.49
84387;BME280;74580;47.078;15.446;2024-03-06T10:17:48;97495.50;;;23.11;34.42
84387;BME280;74580;47.078;15.446;2024-03-06T10:20:20;97490.06;;;23.11;34.40
84387;BME280;74580;47.078;15.446;2024-03-06T10:22:52;97483.44;;;23.12;34.59
84387;BME280;74580;47.078;15.446;2024-03-06T10:25:19;97486.16;;;23.12;34.84
84387;BME280;74580;47.078;15.446;2024-03-06T10:27:45;97485.00;;;23.13;34.53
84387;BME280;74580;47.078;15.446;2024-03-06T10:30:12;97481.91;;;23.14;34.69
84387;BME280;74580;47.078;15.446;2024-03-06T10:32:41;97485.81;;;23.13;34.96
84387;BME280;74580;47.078;15.446;2024-03-06T10:35:17;97488.94;;;23.15;34.96
84387;BME280;74580;47.078;15.446;2024-03-06T10:37:45;97488.94;;;23.15;34.56
84387;BME280;74580;47.078;15.446;2024-03-06T10:40:14;97488.16;;;23.15;34.77
84387;BME280;74580;47.078;15.446;2024-03-06T10:42:40;97492.47;;;23.16;34.83
84387;BME280;74580;47.078;15.446;2024-03-06T10:45:07;97486.22;;;23.15;35.06
84387;BME280;74580;47.078;15.446;2024-03-06T10:47:39;97487.41;;;23.18;34.78
84387;BME280;74580;47.078;15.446;2024-03-06T10:50:06;97484.69;;;23.18;35.06
84387;BME280;74580;47.078;15.446;2024-03-06T10:52:36;97480.84;;;23.19;34.77
84387;BME280;74580;47.078;15.446;2024-03-06T10:55:03;97487.88;;;23.20;35.07
84387;BME280;74580;47.078;15.446;2024-03-06T10:57:29;97479.72;;;23.20;35.27
84387;BME280;74580;47.078;15.446;2024-03-06T10:59:56;97476.63;;;23.21;35.17
84387;BME280;74580;47.078;15.446;2024-03-06T11:02:24;97486.34;;;23.22;35.19
84387;BME280;74580;47.078;15.446;2024-03-06T11:04:50;97478.19;;;23.22;34.96
84387;BME280;74580;47.078;15.446;2024-03-06T11:07:16;97479.75;;;23.23;35.05
84387;BME280;74580;47.078;15.446;2024-03-06T11:09:42;97478.19;;;23.22;34.96
84387;BME280;74580;47.078;15.446;2024-03-06T11:12:07;97484.03;;;23.24;35.23
84387;BME280;74580;47.078;15.446;2024-03-06T11:14:37;97477.47;;;23.25;35.20
84387;BME280;74580;47.078;15.446;2024-03-06T11:28:27;97470.84;;;23.26;35.54
84387;BME280;74580;47.078;15.446;2024-03-06T11:33:40;97460.75;;;23.27;35.33
84387;BME280;74580;47.078;15.446;2024-03-06T11:38:47;97449.84;;;23.27;35.22
84387;BME280;74580;47.078;15.446;2024-03-06T11:41:13;97444.00;;;23.28;35.51
84387;BME280;74580;47.078;15.446;2024-03-06T11:43:44;97447.50;;;23.29;35.45
84387;BME280;74580;47.078;15.446;2024-03-06T11:46:10;97442.06;;;23.29;35.46
84387;BME280;74580;47.078;15.446;2024-03-06T11:48:36;97438.97;;;23.30;35.21
84387;BME280;74580;47.078;15.446;2024-03-06T11:51:02;97439.75;;;23.31;35.40
84387;BME280;74580;47.078;15.446;2024-03-06T11:53:33;97440.91;;;23.30;35.67
84387;BME280;74580;47.078;15.446;2024-03-06T11:56:00;97433.50;;;23.30;35.56
84387;BME280;74580;47.078;15.446;2024-03-06T11:58:25;97429.47;;;23.21;34.14
84387;BME280;74580;47.078;15.446;2024-03-06T12:00:53;97428.75;;;23.24;34.61
84387;BME280;74580;47.078;15.446;2024-03-06T12:03:20;97430.66;;;23.20;34.71
84387;BME280;74580;47.078;15.446;2024-03-06T12:05:46;97426.31;;;23.19;34.57
84387;BME280;74580;47.078;15.446;2024-03-06T12:08:11;97425.53;;;23.18;34.79
84387;BME280;74580;47.078;15.446;2024-03-06T12:10:39;97427.47;;;23.18;34.74
84387;BME280;74580;47.078;15.446;2024-03-06T12:13:04;97419.28;;;23.18;35.07
84387;BME280;74580;47.078;15.446;2024-03-06T12:15:30;97420.88;;;23.19;34.67
84387;BME280;74580;47.078;15.446;2024-03-06T12:17:56;97404.88;;;23.17;34.67
84387;BME280;74580;47.078;15.446;2024-03-06T12:20:21;97413.81;;;23.18;34.68
84387;BME280;74580;47.078;15.446;2024-03-06T12:22:50;97411.09;;;23.18;34.99
84387;BME280;74580;47.078;15.446;2024-03-06T12:25:24;97411.47;;;23.16;35.07
84387;BME280;74580;47.078;15.446;2024-03-06T12:27:50;97412.25;;;23.17;35.09
84387;BME280;74580;47.078;15.446;2024-03-06T12:30:17;97412.63;;;23.15;34.82
84387;BME280;74580;47.078;15.446;2024-03-06T12:32:44;97405.25;;;23.16;35.03
84387;BME280;74580;47.078;15.446;2024-03-06T12:35:09;97407.63;;;23.17;34.70
84387;BME280;74580;47.078;15.446;2024-03-06T12:37:35;97406.94;;;23.24;34.54
84387;BME280;74580;47.078;15.446;2024-03-06T12:40:01;97396.03;;;23.24;34.93
84387;BME280;74580;47.078;15.446;2024-03-06T12:42:30;97391.00;;;23.26;34.65
84387;BME280;74580;47.078;15.446;2024-03-06T12:44:56;97397.59;;;23.25;34.74
84387;BME280;74580;47.078;15.446;2024-03-06T12:47:22;97390.63;;;23.27;34.66
84387;BME280;74580;47.078;15.446;2024-03-06T12:49:47;97388.69;;;23.28;34.66
84387;BME280;74580;47.078;15.446;2024-03-06T12:52:13;97391.06;;;23.29;34.99
84387;BME280;74580;47.078;15.446;2024-03-06T12:54:38;97389.53;;;23.32;34.89
84387;BME280;74580;47.078;15.446;2024-03-06T12:57:03;97385.66;;;23.33;35.11
84387;BME280;74580;47.078;15.446;2024-03-06T12:59:29;97384.09;;;23.32;34.69
84387;BME280;74580;47.078;15.446;2024-03-06T13:01:54;97385.28;;;23.34;35.28